Time;durP1;ratioP1;P1;durP2;ratioP2;P2;SDS_P1;SDS_P2;PMS_P1;PMS_P2;Temp;Humidity;BMP_temperature;BMP_pressure;BME280_temperature;BME280_humidity;BME280_pressure;Samples;Min_cycle;Max_cycle;Signal;HPM_P1;HPM_P2
2021/12/05 00:22:28;;;;;;;13.65;7.50;;;9.80;99.90;;;;;;5102421;28;20477;-60
2021/12/05 00:24:57;;;;;;;10.85;7.00;;;9.70;99.90;;;;;;5089927;28;20040;-60
2021/12/05 00:27:37;;;;;;;11.35;7.97;;;9.60;99.90;;;;;;5088736;28;20081;-60
2021/12/05 00:35:55;;;;;;;11.48;6.90;;;9.10;99.90;;;;;;5086420;28;20123;-60
2021/12/05 01:02:41;;;;;;;14.40;6.22;;;9.10;99.90;;;;;;5074064;28;20166;-60
2021/12/05 01:15:59;;;;;;;10.50;5.28;;;9.00;99.90;;;;;;5056854;28;20036;-60
2021/12/05 01:18:28;;;;;;;8.82;5.70;;;9.00;99.90;;;;;;5078777;28;20078;-61
2021/12/05 01:21:00;;;;;;;9.52;5.57;;;9.10;99.90;;;;;;5029869;28;20062;-60
2021/12/05 01:31:29;;;;;;;10.48;5.20;;;9.00;99.90;;;;;;5056383;28;20051;-60
2021/12/05 01:39:13;;;;;;;9.02;5.03;;;8.90;99.90;;;;;;5048552;28;20386;-60
2021/12/05 01:44:38;;;;;;;10.32;5.43;;;8.90;99.90;;;;;;5095955;28;20420;-59
2021/12/05 01:57:55;;;;;;;11.32;5.25;;;9.10;99.90;;;;;;5080272;28;20130;-60
2021/12/05 02:29:26;;;;;;;11.60;6.53;;;9.20;99.90;;;;;;5086302;28;20031;-61
2021/12/05 02:39:10;;;;;;;6.05;4.50;;;9.30;99.90;;;;;;5071716;28;20044;-60
2021/12/05 02:41:43;;;;;;;7.50;4.75;;;9.30;99.90;;;;;;5081573;28;20135;-60
2021/12/05 02:44:20;;;;;;;9.02;4.63;;;9.40;99.90;;;;;;5081378;28;20560;-60
2021/12/05 02:47:02;;;;;;;11.20;5.22;;;9.50;99.90;;;;;;5090389;28;20048;-60
2021/12/05 02:49:33;;;;;;;9.07;4.55;;;9.50;99.90;;;;;;5060636;28;20044;-60
2021/12/05 02:52:06;;;;;;;7.22;4.97;;;9.50;99.90;;;;;;5078082;28;20107;-60
2021/12/05 02:54:45;;;;;;;10.40;5.32;;;9.50;99.90;;;;;;5077945;28;20424;-60
2021/12/05 02:57:13;;;;;;;10.68;6.05;;;9.40;99.90;;;;;;5077779;28;20085;-60
2021/12/05 02:59:47;;;;;;;7.97;4.82;;;9.40;99.90;;;;;;5044667;28;20082;-60
2021/12/05 03:02:18;;;;;;;10.55;6.15;;;9.40;99.90;;;;;;5095861;28;20067;-61
2021/12/05 03:04:50;;;;;;;12.02;6.22;;;9.40;99.90;;;;;;5077415;28;20066;-60
2021/12/05 03:07:25;;;;;;;9.18;5.20;;;9.40;99.90;;;;;;5044467;28;20048;-60
2021/12/05 03:09:54;;;;;;;;;;;9.40;99.90;;;;;;5053787;28;20484;-60
2021/12/05 03:12:22;;;;;;;10.52;6.22;;;9.20;99.90;;;;;;5060800;28;19916;-60
2021/12/05 03:14:59;;;;;;;9.20;4.47;;;9.10;99.90;;;;;;5061206;28;20094;-60
2021/12/05 03:17:27;;;;;;;9.40;5.80;;;9.00;99.90;;;;;;5043800;28;20048;-60
2021/12/05 03:19:55;;;;;;;9.50;6.13;;;8.90;99.90;;;;;;5060726;28;20069;-60
2021/12/05 03:22:22;;;;;;;9.30;6.22;;;8.90;99.90;;;;;;5095144;28;20051;-60
2021/12/05 03:24:51;;;;;;;9.80;5.80;;;9.00;99.90;;;;;;5073818;28;20089;-60
2021/12/05 03:27:19;;;;;;;8.82;5.38;;;8.90;99.90;;;;;;5060290;28;20055;-60
2021/12/05 03:29:49;;;;;;;9.70;4.95;;;9.00;99.90;;;;;;5044244;28;20043;-60
2021/12/05 03:32:17;;;;;;;9.70;5.40;;;9.00;99.90;;;;;;5077022;28;20476;-61
2021/12/05 03:34:46;;;;;;;9.98;5.18;;;9.00;99.90;;;;;;5059824;28;20447;-61
2021/12/05 03:37:15;;;;;;;9.35;4.97;;;9.10;99.90;;;;;;5076811;28;20040;-61
2021/12/05 03:39:43;;;;;;;7.00;4.75;;;9.10;99.90;;;;;;5043833;28;20044;-61
2021/12/05 03:42:14;;;;;;;7.35;5.22;;;9.10;99.90;;;;;;5044043;28;20051;-60
2021/12/05 03:44:43;;;;;;;8.70;5.35;;;9.20;99.90;;;;;;5060039;28;20093;-60
2021/12/05 03:47:11;;;;;;;11.13;5.55;;;9.20;99.90;;;;;;5083992;28;20444;-60
2021/12/05 03:49:39;;;;;;;9.30;5.22;;;9.20;99.90;;;;;;5095378;28;20043;-60
2021/12/05 03:52:15;;;;;;;6.20;4.30;;;9.20;99.90;;;;;;5080384;28;20119;-61
2021/12/05 03:54:44;;;;;;;7.45;4.65;;;9.20;99.90;;;;;;5096851;28;20035;-60
2021/12/05 03:57:12;;;;;;;6.28;3.97;;;9.20;99.90;;;;;;5079890;28;20461;-61
2021/12/05 03:59:40;;;;;;;7.53;4.22;;;9.30;99.90;;;;;;5080254;28;20044;-60
2021/12/05 04:02:09;;;;;;;8.55;3.90;;;9.30;99.90;;;;;;5096188;28;20039;-61
2021/12/05 04:04:40;;;;;;;7.07;4.05;;;9.30;99.90;;;;;;5080403;28;20469;-60
2021/12/05 04:07:13;;;;;;;7.00;4.20;;;9.20;99.90;;;;;;5063542;28;20039;-60
2021/12/05 04:09:42;;;;;;;6.40;4.07;;;9.10;99.90;;;;;;5079812;28;20032;-60
2021/12/05 04:12:14;;;;;;;9.95;4.03;;;9.10;99.90;;;;;;5096463;28;20050;-60
2021/12/05 04:14:46;;;;;;;8.98;4.15;;;9.00;99.90;;;;;;5096461;28;20031;-61
2021/12/05 04:17:16;;;;;;;8.25;4.22;;;9.00;99.90;;;;;;5079499;28;20078;-60
2021/12/05 04:19:44;;;;;;;7.93;4.72;;;8.90;99.90;;;;;;5096380;28;20043;-60
2021/12/05 04:22:12;;;;;;;9.07;5.55;;;8.90;99.90;;;;;;5079567;28;20027;-61
2021/12/05 04:24:41;;;;;;;11.07;5.60;;;8.90;99.90;;;;;;5062559;28;20047;-61
2021/12/05 04:27:14;;;;;;;9.15;5.63;;;8.80;99.90;;;;;;5080333;28;20428;-61
2021/12/05 04:29:42;;;;;;;8.30;4.43;;;8.80;99.90;;;;;;5079253;28;20047;-60
2021/12/05 04:32:10;;;;;;;6.25;4.15;;;8.80;99.90;;;;;;5079498;28;20039;-61
2021/12/05 04:34:38;;;;;;;9.93;4.43;;;8.80;99.90;;;;;;5096376;28;20039;-61
2021/12/05 04:37:06;;;;;;;5.22;3.88;;;8.80;99.90;;;;;;5096012;28;20063;-61
2021/12/05 04:39:37;;;;;;;6.05;3.60;;;8.80;99.90;;;;;;5096142;28;20126;-60
2021/12/05 04:42:07;;;;;;;5.00;3.22;;;8.80;99.90;;;;;;5079757;28;20066;-66
2021/12/05 04:44:34;;;;;;;6.53;3.20;;;8.80;99.90;;;;;;5079221;28;20538;-61
2021/12/05 04:47:05;;;;;;;8.95;3.35;;;8.80;99.90;;;;;;5096017;28;20081;-61
2021/12/05 04:49:34;;;;;;;4.93;3.10;;;8.80;99.90;;;;;;5079302;28;20043;-61
2021/12/05 04:52:03;;;;;;;6.20;3.38;;;8.90;99.90;;;;;;5062668;28;20043;-61
2021/12/05 04:54:31;;;;;;;12.30;3.25;;;8.80;99.90;;;;;;5079397;28;20036;-60
2021/12/05 04:56:59;;;;;;;4.82;3.00;;;8.90;99.90;;;;;;5095885;28;20036;-60
2021/12/05 04:59:35;;;;;;;5.28;2.83;;;8.90;99.90;;;;;;5079542;28;20031;-60
2021/12/05 05:02:07;;;;;;;6.20;2.88;;;8.90;99.90;;;;;;5062185;28;20131;-60
2021/12/05 05:04:47;;;;;;;11.05;3.63;;;8.90;99.90;;;;;;5095596;28;20150;-60
2021/12/05 05:07:24;;;;;;;5.20;2.70;;;8.90;99.90;;;;;;5114453;28;20075;-60
2021/12/05 05:09:58;;;;;;;5.07;3.40;;;8.80;99.90;;;;;;5096153;28;20489;-61
2021/12/05 05:12:26;;;;;;;5.38;3.10;;;8.80;99.90;;;;;;5095773;28;20467;-60
2021/12/05 05:14:54;;;;;;;4.72;2.78;;;8.80;99.90;;;;;;5083145;28;20027;-60
2021/12/05 05:17:22;;;;;;;6.03;3.25;;;8.80;99.90;;;;;;5099804;28;20039;-60
2021/12/05 05:19:55;;;;;;;5.05;2.55;;;8.80;99.90;;;;;;5082836;28;20047;-61
2021/12/05 05:22:40;;;;;;;3.90;2.72;;;8.80;99.90;;;;;;5083206;28;20027;-62
2021/12/05 05:30:47;;;;;;;4.40;2.15;;;8.90;99.90;;;;;;5099585;28;20048;-60
2021/12/05 05:52:15;;;;;;;5.35;2.75;;;9.00;99.90;;;;;;5034584;28;20605;-61
2021/12/05 05:54:46;;;;;;;4.20;1.85;;;9.10;99.90;;;;;;5069585;28;20043;-61
2021/12/05 05:57:37;;;;;;;4.93;2.15;;;9.20;99.90;;;;;;5098790;28;20036;-61
2021/12/05 06:00:28;;;;;;;3.67;2.42;;;9.20;99.90;;;;;;5078847;28;20044;-61
2021/12/05 06:05:42;;;;;;;4.43;1.70;;;9.40;99.90;;;;;;5117108;28;20035;-60
2021/12/05 06:08:09;;;;;;;3.38;1.95;;;9.40;99.90;;;;;;5099274;28;20039;-61
2021/12/05 06:10:37;;;;;;;4.13;1.80;;;9.60;99.90;;;;;;5081731;28;20055;-61
2021/12/05 06:13:05;;;;;;;4.38;2.47;;;9.90;99.90;;;;;;5116874;28;20051;-60
2021/12/05 06:15:32;;;;;;;4.85;3.08;;;10.20;99.90;;;;;;5098792;28;20062;-61
2021/12/05 06:18:00;;;;;;;3.15;2.00;;;10.40;99.90;;;;;;5081770;28;20370;-61
2021/12/05 06:20:31;;;;;;;4.97;2.20;;;10.80;99.90;;;;;;5116953;28;20401;-60
2021/12/05 06:22:59;;;;;;;2.50;1.63;;;11.10;99.90;;;;;;5081719;28;20375;-61
2021/12/05 06:25:30;;;;;;;3.80;2.25;;;11.30;99.90;;;;;;5097716;28;20047;-61
2021/12/05 06:28:03;;;;;;;4.35;2.33;;;11.60;99.90;;;;;;5098466;28;20040;-61
2021/12/05 06:46:39;;;;;;;4.63;2.03;;;13.50;99.90;;;;;;5097701;28;20055;-61
2021/12/05 06:49:07;;;;;;;4.22;1.27;;;13.70;99.90;;;;;;5116097;28;20131;-65
2021/12/05 06:51:34;;;;;;;3.03;1.20;;;13.70;99.90;;;;;;5098363;28;20031;-60
2021/12/05 06:54:02;;;;;;;2.78;1.20;;;12.90;99.90;;;;;;5097960;28;20031;-65
2021/12/05 06:56:30;;;;;;;4.80;1.80;;;12.40;99.90;;;;;;5063572;28;20040;-61
2021/12/05 06:58:58;;;;;;;3.72;1.20;;;12.20;99.90;;;;;;5098057;28;20059;-61
2021/12/05 07:01:26;;;;;;;3.08;1.55;;;11.90;99.90;;;;;;5115685;28;20039;-61
2021/12/05 07:03:53;;;;;;;5.15;1.50;;;11.70;99.90;;;;;;5095963;28;20130;-63
2021/12/05 07:06:27;;;;;;;3.42;1.58;;;11.70;99.90;;;;;;5079432;28;20054;-61
2021/12/05 07:09:00;;;;;;;3.05;1.48;;;11.70;99.90;;;;;;5080941;28;20044;-61
2021/12/05 07:11:53;;;;;;;4.20;1.83;;;11.70;99.90;;;;;;5097459;28;20066;-61
2021/12/05 07:17:09;;;;;;;3.47;1.70;;;11.70;99.90;;;;;;5115919;28;20097;-60
2021/12/05 07:23:04;;;;;;;3.72;1.65;;;11.70;99.90;;;;;;5080698;28;20135;-59
2021/12/05 07:25:24;;;;;;;4.00;2.00;;;11.70;99.90;;;;;;5080622;28;20054;-59
2021/12/05 07:41:50;;;;;;;6.47;1.70;;;12.50;99.90;;;;;;5080235;28;20047;-62
2021/12/05 07:44:18;;;;;;;2.78;1.35;;;13.00;99.90;;;;;;5079933;28;20093;-60
2021/12/05 07:46:46;;;;;;;5.63;2.03;;;13.00;99.90;;;;;;5096695;28;20092;-60
2021/12/05 07:49:16;;;;;;;3.95;2.10;;;12.80;99.90;;;;;;5097002;28;20039;-60
2021/12/05 07:51:47;;;;;;;4.50;2.17;;;12.80;99.90;;;;;;5115173;28;20122;-60
2021/12/05 07:54:30;;;;;;;3.30;1.23;;;13.10;99.90;;;;;;5097062;28;20034;-60
2021/12/05 07:57:23;;;;;;;3.60;1.65;;;13.70;99.90;;;;;;5114245;28;20048;-59
2021/12/05 08:16:29;;;;;;;6.57;1.95;;;15.10;99.90;;;;;;5114269;28;20283;-60
2021/12/05 08:18:59;;;;;;;3.83;2.08;;;15.20;99.90;;;;;;5096554;28;20032;-60
2021/12/05 08:21:27;;;;;;;3.45;1.60;;;15.40;99.90;;;;;;5096182;28;20036;-60
2021/12/05 08:23:54;;;;;;;6.97;1.85;;;15.60;99.90;;;;;;5096388;28;20035;-60
2021/12/05 08:26:30;;;;;;;3.17;1.48;;;15.50;99.90;;;;;;5062811;28;20540;-60
2021/12/05 08:29:20;;;;;;;2.25;1.50;;;15.50;99.90;;;;;;5096201;28;20036;-60
2021/12/05 09:26:37;;;;;;;5.78;2.38;;;15.40;99.90;;;;;;5077963;28;20036;-63
2021/12/05 09:38:36;;;;;;;7.00;2.60;;;15.40;99.90;;;;;;5095578;28;20489;-60
2021/12/05 09:51:01;;;;;;;3.22;2.05;;;16.10;99.90;;;;;;5077755;28;20481;-61
2021/12/05 10:02:46;;;;;;;;;;;16.60;99.90;;;;;;5083000;28;20040;-60
2021/12/05 10:27:20;;;;;;;5.50;3.25;;;16.50;99.90;;;;;;5116742;28;20040;-60
2021/12/05 10:38:24;;;;;;;9.05;3.50;;;16.60;99.90;;;;;;5081313;28;20048;-60
2021/12/05 10:43:57;;;;;;;7.38;2.97;;;16.90;99.90;;;;;;5060567;28;20059;-61
2021/12/05 10:46:29;;;;;;;7.35;3.75;;;16.80;99.90;;;;;;5085758;28;20053;-60
2021/12/05 10:49:07;;;;;;;5.45;2.63;;;16.60;99.90;;;;;;5085973;28;20036;-74
2021/12/05 10:51:46;;;;;;;5.63;2.78;;;16.50;99.90;;;;;;5104266;28;20114;-59
2021/12/05 10:54:19;;;;;;;7.97;4.03;;;16.50;99.90;;;;;;5091752;28;20040;-59
2021/12/05 10:56:55;;;;;;;5.70;2.38;;;16.50;99.90;;;;;;5117423;27;20478;-60
2021/12/05 10:59:24;;;;;;;4.82;2.15;;;16.60;99.90;;;;;;5108558;28;20046;-60
2021/12/05 11:02:01;;;;;;;6.40;2.83;;;16.60;99.90;;;;;;5073180;28;20507;-59
2021/12/05 11:04:34;;;;;;;7.43;3.13;;;16.50;99.90;;;;;;5092497;28;20058;-60
2021/12/05 11:07:24;;;;;;;5.22;2.83;;;16.60;99.90;;;;;;5104184;28;20489;-60
2021/12/05 11:09:57;;;;;;;7.40;2.85;;;16.70;99.90;;;;;;5110065;28;20435;-66
2021/12/05 11:12:31;;;;;;;10.73;3.55;;;16.70;99.90;;;;;;5102351;28;20478;-60
2021/12/05 11:15:11;;;;;;;7.22;3.33;;;16.80;99.90;;;;;;5093733;28;20067;-60
2021/12/05 11:17:43;;;;;;;9.98;3.60;;;16.90;99.90;;;;;;5088318;28;20485;-60
2021/12/05 11:20:18;;;;;;;8.02;2.88;;;16.90;99.90;;;;;;5092213;28;20051;-60
2021/12/05 11:22:48;;;;;;;3.90;2.63;;;16.90;99.90;;;;;;5096924;28;20040;-61
2021/12/05 11:25:20;;;;;;;7.30;2.40;;;17.00;99.90;;;;;;5088679;28;20077;-61
2021/12/05 11:27:50;;;;;;;7.57;2.38;;;17.20;99.90;;;;;;5076239;28;20067;-60
2021/12/05 11:30:45;;;;;;;6.30;2.70;;;17.20;99.90;;;;;;5076642;28;20036;-60
2021/12/05 11:33:19;;;;;;;6.68;3.35;;;16.90;99.90;;;;;;5094486;28;20094;-61
2021/12/05 11:35:52;;;;;;;7.47;4.72;;;16.60;99.90;;;;;;5075879;28;20040;-61
2021/12/05 11:38:35;;;;;;;9.75;3.95;;;16.40;99.90;;;;;;5091307;28;20135;-60
2021/12/05 11:41:18;;;;;;;8.50;3.42;;;16.10;99.90;;;;;;5077204;28;20040;-60
2021/12/05 11:43:57;;;;;;;8.63;4.07;;;16.00;99.90;;;;;;5094017;28;20032;-60
2021/12/05 11:46:32;;;;;;;10.30;3.08;;;16.00;99.90;;;;;;5093860;28;20424;-60
2021/12/05 11:49:10;;;;;;;9.02;3.97;;;16.00;99.90;;;;;;5082800;28;20036;-60
2021/12/05 11:51:46;;;;;;;7.97;3.65;;;15.90;99.90;;;;;;5096007;28;20149;-60
2021/12/05 11:54:32;;;;;;;7.25;3.38;;;15.80;99.90;;;;;;5094289;28;20138;-61
2021/12/05 11:57:21;;;;;;;7.45;2.88;;;15.80;99.90;;;;;;5060467;28;20040;-61
2021/12/05 11:59:53;;;;;;;6.70;2.72;;;15.80;99.90;;;;;;5096630;28;20043;-60
2021/12/05 12:02:30;;;;;;;6.22;3.13;;;15.80;99.90;;;;;;5094288;28;20032;-60
2021/12/05 12:05:14;;;;;;;5.70;2.88;;;15.70;99.90;;;;;;5093160;28;20048;-63
2021/12/05 12:08:02;;;;;;;11.05;3.58;;;15.70;99.90;;;;;;5073945;28;20117;-60
2021/12/05 12:10:33;;;;;;;8.23;4.25;;;15.70;99.90;;;;;;5093558;28;20134;-60
2021/12/05 12:13:15;;;;;;;12.45;3.22;;;15.60;99.90;;;;;;5071478;28;20048;-60
2021/12/05 12:15:47;;;;;;;8.27;2.90;;;15.50;99.90;;;;;;5093428;28;20389;-60
2021/12/05 12:18:24;;;;;;;12.63;3.88;;;15.40;99.90;;;;;;5076377;28;20117;-61
2021/12/05 12:20:52;;;;;;;11.02;2.38;;;15.40;99.90;;;;;;5114356;28;20445;-60
2021/12/05 12:23:22;;;;;;;5.57;3.10;;;15.40;99.90;;;;;;5075967;28;20039;-61
2021/12/05 12:25:54;;;;;;;9.20;2.25;;;15.40;99.90;;;;;;5090347;28;20039;-61
2021/12/05 12:28:22;;;;;;;13.05;2.58;;;15.40;99.90;;;;;;5095552;28;20050;-61
2021/12/05 12:31:22;;;;;;;8.50;2.35;;;15.30;99.90;;;;;;5078575;28;20374;-61
2021/12/05 12:33:56;;;;;;;5.80;2.15;;;15.40;99.90;;;;;;5106165;28;20099;-61
2021/12/05 12:36:34;;;;;;;6.40;2.97;;;15.40;99.90;;;;;;5095146;28;20048;-66
2021/12/05 12:39:24;;;;;;;7.65;2.28;;;15.50;99.90;;;;;;5058878;28;20093;-61
2021/12/05 12:42:23;;;;;;;5.15;2.65;;;15.50;99.90;;;;;;5093378;28;20051;-61
2021/12/05 12:45:21;;;;;;;8.60;2.40;;;15.50;99.90;;;;;;5076129;28;20051;-61
2021/12/05 12:47:58;;;;;;;6.68;2.20;;;15.50;99.90;;;;;;5093577;28;20047;-60
2021/12/05 12:50:33;;;;;;;7.00;3.08;;;15.60;99.90;;;;;;5093890;28;20039;-61
2021/12/05 12:53:15;;;;;;;5.97;3.90;;;15.60;99.90;;;;;;5075927;28;20043;-60
2021/12/05 12:55:54;;;;;;;4.72;2.03;;;15.60;99.90;;;;;;5074944;28;20277;-61
2021/12/05 12:58:37;;;;;;;8.60;2.95;;;15.60;99.90;;;;;;5075333;28;20493;-60
2021/12/05 13:01:49;;;;;;;4.90;2.08;;;15.60;99.90;;;;;;5093615;28;20036;-60
2021/12/05 13:10:34;;;;;;;8.70;3.20;;;15.40;99.90;;;;;;5072180;28;20044;-60
2021/12/05 13:13:10;;;;;;;5.32;3.80;;;15.40;99.90;;;;;;5072410;28;20036;-60
2021/12/05 13:15:52;;;;;;;5.30;2.42;;;15.40;99.90;;;;;;5063659;28;20039;-62
2021/12/05 13:18:42;;;;;;;6.53;2.88;;;15.40;99.90;;;;;;5093175;28;20048;-61
2021/12/05 13:21:16;;;;;;;4.15;2.60;;;15.40;99.90;;;;;;5093226;28;20039;-61
2021/12/05 13:23:47;;;;;;;8.13;2.92;;;15.30;99.90;;;;;;5093291;28;20047;-61
2021/12/05 13:26:39;;;;;;;6.20;2.53;;;15.30;99.90;;;;;;5093414;28;20080;-61
2021/12/05 13:29:12;;;;;;;6.72;3.60;;;15.30;99.90;;;;;;5058600;28;20055;-62
2021/12/05 13:32:34;;;;;;;10.40;3.78;;;15.40;99.90;;;;;;5075641;28;20047;-61
2021/12/05 13:35:07;;;;;;;8.18;3.38;;;15.30;99.90;;;;;;5045801;28;20056;-61
2021/12/05 13:37:54;;;;;;;5.40;3.85;;;15.40;99.90;;;;;;5079324;28;20474;-62
2021/12/05 13:40:26;;;;;;;10.23;3.17;;;15.40;99.90;;;;;;5079244;28;20036;-61
2021/12/05 13:42:53;;;;;;;8.02;2.42;;;15.30;99.90;;;;;;5079006;28;20028;-60
2021/12/05 13:45:27;;;;;;;5.68;2.55;;;15.30;99.90;;;;;;5096918;28;20069;-61
2021/12/05 13:47:54;;;;;;;9.40;3.88;;;15.30;99.90;;;;;;5078599;28;20058;-61
2021/12/05 13:50:28;;;;;;;5.30;3.25;;;15.30;99.90;;;;;;5096878;28;20042;-61
2021/12/05 13:53:02;;;;;;;7.97;3.13;;;15.30;99.90;;;;;;5096922;28;20139;-59
2021/12/05 13:55:41;;;;;;;10.82;3.08;;;15.30;99.90;;;;;;5079190;28;20382;-60
2021/12/05 13:58:38;;;;;;;7.40;2.47;;;15.20;99.90;;;;;;5078764;28;20116;-61
2021/12/05 14:01:15;;;;;;;12.45;4.25;;;15.30;99.90;;;;;;5079037;28;20468;-60
2021/12/05 14:03:54;;;;;;;14.05;3.28;;;15.20;99.90;;;;;;5096777;28;20040;-60
2021/12/05 14:06:26;;;;;;;8.23;3.00;;;15.20;99.90;;;;;;5078369;28;20093;-60
2021/12/05 14:09:20;;;;;;;9.60;2.90;;;15.20;99.90;;;;;;5074707;28;20394;-61
2021/12/05 14:11:56;;;;;;;11.05;5.78;;;15.20;99.90;;;;;;5077818;28;20071;-60
2021/12/05 14:14:34;;;;;;;20.02;11.55;;;15.20;99.90;;;;;;5095392;28;20042;-61
2021/12/05 14:17:08;;;;;;;7.88;5.03;;;15.20;99.90;;;;;;5078321;28;20619;-60
2021/12/05 14:19:38;;;;;;;14.70;8.50;;;15.20;99.90;;;;;;5096000;28;20071;-61
2021/12/05 14:22:09;;;;;;;12.57;5.57;;;15.20;99.90;;;;;;5078880;28;20028;-61
2021/12/05 14:24:44;;;;;;;7.55;3.05;;;15.20;99.90;;;;;;5096517;28;20374;-61
2021/12/05 14:27:18;;;;;;;7.07;3.13;;;15.20;99.90;;;;;;5096098;28;20036;-61
2021/12/05 14:29:48;;;;;;;7.50;3.05;;;15.20;99.90;;;;;;5077876;28;20085;-61
2021/12/05 14:32:25;;;;;;;10.20;6.43;;;15.20;99.90;;;;;;5095836;28;20039;-61
2021/12/05 14:35:00;;;;;;;10.85;4.03;;;15.20;99.90;;;;;;5096047;28;20040;-60
2021/12/05 14:37:33;;;;;;;7.78;2.85;;;15.20;99.90;;;;;;5096105;28;20032;-59
2021/12/05 14:40:12;;;;;;;7.35;3.00;;;15.20;99.90;;;;;;5077793;28;20044;-60
2021/12/05 14:42:44;;;;;;;8.00;3.53;;;15.10;99.90;;;;;;5095902;28;20062;-59
2021/12/05 14:45:22;;;;;;;10.02;3.45;;;15.10;99.90;;;;;;5077321;28;20043;-60
2021/12/05 14:47:52;;;;;;;7.38;2.67;;;15.10;99.90;;;;;;5044547;28;20051;-61
2021/12/05 14:50:31;;;;;;;8.23;3.22;;;15.10;99.90;;;;;;5095779;28;20040;-59
2021/12/05 14:53:03;;;;;;;5.53;3.10;;;15.10;99.90;;;;;;5077935;28;20445;-60
2021/12/05 14:55:33;;;;;;;8.57;3.15;;;14.90;99.90;;;;;;5095629;28;20059;-60
2021/12/05 14:58:07;;;;;;;6.63;3.05;;;15.00;99.90;;;;;;5077736;28;20043;-59
2021/12/05 15:00:43;;;;;;;7.40;2.72;;;14.90;99.90;;;;;;5077677;28;20424;-60
2021/12/05 15:03:17;;;;;;;7.15;3.58;;;14.90;99.90;;;;;;5095937;28;20048;-60
2021/12/05 15:05:55;;;;;;;6.60;3.13;;;14.90;99.90;;;;;;5077707;28;20130;-59
2021/12/05 15:08:25;;;;;;;5.03;3.40;;;14.90;99.90;;;;;;5095892;28;20169;-60
2021/12/05 15:11:04;;;;;;;9.40;3.92;;;14.80;99.90;;;;;;5095478;28;20393;-59
2021/12/05 15:13:32;;;;;;;12.52;6.18;;;14.80;99.90;;;;;;5095296;28;20099;-60
2021/12/05 15:16:01;;;;;;;10.82;4.80;;;14.80;99.90;;;;;;5095399;28;20067;-59
2021/12/05 15:18:29;;;;;;;10.15;4.93;;;14.80;99.90;;;;;;5060976;28;20040;-61
2021/12/05 15:20:58;;;;;;;7.28;3.22;;;14.70;99.90;;;;;;5077629;28;20075;-60
2021/12/05 15:23:28;;;;;;;5.85;3.38;;;14.70;99.90;;;;;;5060228;28;20067;-60
2021/12/05 15:25:59;;;;;;;8.18;2.55;;;14.70;99.90;;;;;;5077535;28;20032;-59
2021/12/05 15:28:27;;;;;;;7.95;3.80;;;14.60;99.90;;;;;;5077220;28;20572;-60
2021/12/05 15:30:55;;;;;;;18.88;5.65;;;14.60;99.90;;;;;;5060519;28;20118;-60
2021/12/05 15:33:25;;;;;;;13.38;5.93;;;14.60;99.90;;;;;;5077061;28;20032;-59
2021/12/05 15:35:55;;;;;;;10.98;6.10;;;14.50;99.90;;;;;;5094751;28;20075;-60
2021/12/05 15:38:27;;;;;;;15.55;9.27;;;14.50;99.90;;;;;;5040183;28;20046;-59
2021/12/05 15:41:04;;;;;;;9.35;6.55;;;14.50;99.90;;;;;;5065455;28;20475;-59
2021/12/05 15:43:35;;;;;;;6.78;3.88;;;14.40;99.90;;;;;;5091887;28;20039;-58
2021/12/05 15:46:04;;;;;;;9.57;4.72;;;14.40;99.90;;;;;;5076398;28;20355;-59
2021/12/05 15:48:35;;;;;;;8.85;3.78;;;14.30;99.90;;;;;;5043176;28;20093;-59
2021/12/05 15:51:06;;;;;;;12.32;5.22;;;14.30;99.90;;;;;;5059895;28;20047;-59
2021/12/05 15:53:36;;;;;;;9.07;3.42;;;14.20;99.90;;;;;;5076564;28;20043;-61
2021/12/05 15:56:10;;;;;;;9.68;3.55;;;14.10;99.90;;;;;;5076023;28;20036;-62
2021/12/05 15:58:47;;;;;;;6.82;4.13;;;14.20;99.90;;;;;;5075511;28;20036;-60
2021/12/05 16:01:23;;;;;;;11.10;3.45;;;14.20;99.90;;;;;;5076375;28;20043;-60
2021/12/05 16:03:54;;;;;;;8.98;3.45;;;14.10;99.90;;;;;;5094438;28;20070;-60
2021/12/05 16:06:38;;;;;;;13.85;4.63;;;14.10;99.90;;;;;;5076102;28;20044;-60
2021/12/05 16:09:23;;;;;;;11.25;4.13;;;14.00;99.90;;;;;;5076561;28;20032;-62
2021/12/05 16:12:04;;;;;;;9.40;3.90;;;14.00;99.90;;;;;;5094135;28;20478;-59
2021/12/05 16:14:36;;;;;;;6.30;3.08;;;14.00;99.90;;;;;;5076380;28;20065;-59
2021/12/05 16:17:21;;;;;;;5.82;3.00;;;14.00;99.90;;;;;;5059664;28;20036;-60
2021/12/05 16:20:11;;;;;;;8.48;3.42;;;14.00;99.90;;;;;;5076080;28;20036;-60
2021/12/05 16:23:09;;;;;;;9.18;3.08;;;13.90;99.90;;;;;;5093905;28;20359;-59
2021/12/05 16:25:46;;;;;;;6.72;3.95;;;13.90;99.90;;;;;;5076821;28;20032;-59
2021/12/05 16:28:15;;;;;;;9.45;4.07;;;13.90;99.90;;;;;;5076228;28;20032;-59
2021/12/05 16:30:48;;;;;;;11.95;3.53;;;13.80;99.90;;;;;;5075946;28;20543;-59
2021/12/05 16:33:18;;;;;;;6.97;4.22;;;13.90;99.90;;;;;;5093828;28;20051;-61
2021/12/05 16:35:49;;;;;;;10.30;5.07;;;13.90;99.90;;;;;;5059361;28;20047;-60
2021/12/05 16:38:27;;;;;;;9.55;4.70;;;13.90;99.90;;;;;;5059366;28;20048;-59
2021/12/05 16:40:59;;;;;;;9.95;4.68;;;13.90;99.90;;;;;;5075638;28;20040;-59
2021/12/05 16:43:30;;;;;;;12.35;7.30;;;13.90;99.90;;;;;;5075860;28;20044;-59
2021/12/05 16:46:14;;;;;;;14.77;9.23;;;13.90;99.90;;;;;;5093449;28;20036;-59
2021/12/05 16:48:43;;;;;;;11.95;5.68;;;13.90;99.90;;;;;;5093333;28;20089;-61
2021/12/05 16:51:15;;;;;;;9.35;6.68;;;13.90;99.90;;;;;;5093678;28;20135;-59
2021/12/05 16:53:46;;;;;;;12.65;7.32;;;14.00;99.90;;;;;;5076307;28;20093;-59
2021/12/05 16:56:33;;;;;;;13.93;7.75;;;14.00;99.90;;;;;;5093784;28;20377;-60
2021/12/05 16:59:07;;;;;;;12.07;6.93;;;14.00;99.90;;;;;;5075837;28;20036;-60
2021/12/05 17:01:35;;;;;;;13.18;5.75;;;14.00;99.90;;;;;;5093373;28;20032;-63
2021/12/05 17:04:03;;;;;;;13.98;6.63;;;14.00;99.90;;;;;;5075706;28;20032;-59
2021/12/05 17:06:44;;;;;;;7.95;4.43;;;14.00;99.90;;;;;;5075517;28;20466;-59
2021/12/05 17:09:13;;;;;;;11.23;4.32;;;14.00;99.90;;;;;;5076777;28;20067;-60
2021/12/05 17:11:41;;;;;;;10.95;4.22;;;14.00;99.90;;;;;;5097453;28;20044;-59
2021/12/05 17:14:20;;;;;;;16.55;5.13;;;14.00;99.90;;;;;;5079601;28;20063;-59
2021/12/05 17:16:48;;;;;;;10.13;5.22;;;14.00;99.90;;;;;;5062840;28;20747;-59
2021/12/05 17:19:18;;;;;;;7.53;3.58;;;14.00;99.90;;;;;;5079411;28;20032;-60
2021/12/05 17:21:49;;;;;;;9.95;3.85;;;14.10;99.90;;;;;;5062842;28;20131;-61
2021/12/05 17:24:29;;;;;;;8.75;3.25;;;14.00;99.90;;;;;;5097493;28;20559;-60
2021/12/05 17:27:02;;;;;;;17.77;4.53;;;14.10;99.90;;;;;;5079392;28;20058;-59
2021/12/05 17:29:35;;;;;;;11.32;4.80;;;14.00;99.90;;;;;;5096922;28;20047;-59
2021/12/05 17:32:16;;;;;;;15.05;6.00;;;14.00;99.90;;;;;;5079475;28;20050;-61
2021/12/05 17:34:46;;;;;;;12.63;5.32;;;13.90;99.90;;;;;;5096800;28;20069;-59
2021/12/05 17:37:24;;;;;;;9.40;4.43;;;13.90;99.90;;;;;;5079233;28;20057;-61
2021/12/05 17:39:53;;;;;;;13.68;5.50;;;13.90;99.90;;;;;;5079344;28;20046;-59
2021/12/05 17:42:23;;;;;;;7.85;4.15;;;13.80;99.90;;;;;;5078923;28;20164;-59
2021/12/05 17:45:00;;;;;;;8.63;5.53;;;13.80;99.90;;;;;;5079007;28;20039;-59
2021/12/05 17:47:29;;;;;;;12.27;6.35;;;13.70;99.90;;;;;;5078949;28;20127;-59
2021/12/05 17:49:59;;;;;;;10.77;6.43;;;13.70;99.90;;;;;;5079090;28;20051;-58
2021/12/05 17:52:28;;;;;;;11.60;5.75;;;13.60;99.90;;;;;;5045804;28;20056;-61
2021/12/05 17:55:06;;;;;;;16.38;6.20;;;13.60;99.90;;;;;;5078768;28;20036;-59
2021/12/05 17:57:43;;;;;;;9.45;5.05;;;13.60;99.90;;;;;;5078443;28;20138;-59
2021/12/05 18:00:20;;;;;;;;;;;13.50;99.90;;;;;;5097046;28;20089;-59
2021/12/05 18:02:55;;;;;;;9.07;4.25;;;13.50;99.90;;;;;;5078690;28;19916;-59
2021/12/05 18:05:25;;;;;;;12.48;5.45;;;13.40;99.90;;;;;;5078773;28;20036;-59
2021/12/05 18:07:56;;;;;;;8.70;4.95;;;13.40;99.90;;;;;;5078638;28;20062;-60
2021/12/05 18:10:26;;;;;;;6.30;3.58;;;13.40;99.90;;;;;;5061683;28;20131;-63
2021/12/05 18:12:58;;;;;;;11.68;4.95;;;13.40;99.90;;;;;;5096678;28;20118;-59
2021/12/05 18:15:46;;;;;;;13.30;6.45;;;13.40;99.90;;;;;;5078396;28;20055;-60
2021/12/05 18:18:16;;;;;;;13.82;5.60;;;13.50;99.90;;;;;;5078290;28;20047;-59
2021/12/05 18:20:44;;;;;;;15.60;6.68;;;13.40;99.90;;;;;;5077014;28;20036;-59
2021/12/05 18:23:12;;;;;;;8.85;5.10;;;13.50;99.90;;;;;;5078526;28;20058;-58
2021/12/05 18:25:41;;;;;;;15.27;5.50;;;13.50;99.90;;;;;;5045086;28;20036;-59
2021/12/05 18:28:10;;;;;;;7.70;4.70;;;13.50;99.90;;;;;;5062072;28;20047;-59
2021/12/05 18:30:39;;;;;;;17.08;6.75;;;13.60;99.90;;;;;;5078097;28;20128;-59
2021/12/05 18:33:09;;;;;;;10.10;5.57;;;13.60;99.90;;;;;;5061545;28;20105;-60
2021/12/05 18:35:38;;;;;;;10.50;4.38;;;13.50;99.90;;;;;;5061206;28;20553;-58
2021/12/05 18:38:10;;;;;;;12.38;6.10;;;13.60;99.90;;;;;;5077857;28;20063;-58
2021/12/05 18:40:45;;;;;;;7.47;4.35;;;13.60;99.90;;;;;;5061223;28;20068;-58
2021/12/05 18:43:14;;;;;;;10.10;6.28;;;13.70;99.90;;;;;;5077725;28;20040;-58
2021/12/05 18:45:43;;;;;;;11.52;5.25;;;13.70;99.90;;;;;;5095733;28;20474;-59
2021/12/05 18:48:12;;;;;;;9.52;6.45;;;13.60;99.90;;;;;;5078052;28;20056;-59
2021/12/05 18:50:45;;;;;;;8.75;4.60;;;13.70;99.90;;;;;;5077971;28;20063;-62